createdAt,value
2018-12-01T00:00:40.903Z,0.09
2018-12-01T00:01:41.364Z,0.09
2018-12-01T00:02:41.942Z,0.09
2018-12-01T00:03:42.729Z,0.09
2018-12-01T00:04:42.161Z,0.09
2018-12-01T00:05:43.591Z,0.09
2018-12-01T00:06:44.473Z,0.09
2018-12-01T00:07:45.033Z,0.09
2018-12-01T00:08:45.412Z,0.09
2018-12-01T00:09:45.744Z,0.09
2018-12-01T00:10:46.235Z,0.09
2018-12-01T00:11:46.680Z,0.09
2018-12-01T00:12:47.014Z,0.09
2018-12-01T00:13:47.365Z,0.09
2018-12-01T00:14:47.681Z,0.09
2018-12-01T00:15:48.082Z,0.09
2018-12-01T00:16:48.798Z,0.09
2018-12-01T00:17:49.191Z,0.09
2018-12-01T00:18:49.564Z,0.09
2018-12-01T00:19:49.955Z,0.09
2018-12-01T00:20:50.773Z,0.09
2018-12-01T00:21:51.096Z,0.09
2018-12-01T00:22:51.609Z,0.09
2018-12-01T00:23:51.921Z,0.09
2018-12-01T00:24:52.249Z,0.09
2018-12-01T00:25:52.719Z,0.09
2018-12-01T00:26:53.132Z,0.09
2018-12-01T00:27:54.000Z,0.09
2018-12-01T00:28:54.313Z,0.09
2018-12-01T00:29:54.661Z,0.09
2018-12-01T00:30:55.131Z,0.09
2018-12-01T00:31:55.727Z,0.09
2018-12-01T00:32:56.149Z,0.09
2018-12-01T00:33:56.845Z,0.09
2018-12-01T00:34:57.547Z,0.09
2018-12-01T00:35:57.674Z,0.09
2018-12-01T00:36:58.240Z,0.09
2018-12-01T00:37:58.669Z,0.09
2018-12-01T00:38:07.092Z,0.09
2018-12-01T00:39:07.708Z,0.09
2018-12-01T00:40:08.075Z,0.09
2018-12-01T00:41:08.632Z,0.09
2018-12-01T00:42:09.574Z,0.09
2018-12-01T00:43:10.225Z,0.09
2018-12-01T00:44:10.565Z,0.09
2018-12-01T00:45:10.619Z,0.09
2018-12-01T00:46:11.026Z,0.09
2018-12-01T00:47:11.562Z,0.09
2018-12-01T00:48:12.088Z,0.09
2018-12-01T00:49:12.465Z,0.09
2018-12-01T00:50:13.027Z,0.09
2018-12-01T00:51:12.434Z,0.09
2018-12-01T00:52:13.873Z,0.09
2018-12-01T00:53:14.268Z,0.09
2018-12-01T00:54:14.745Z,0.09
2018-12-01T00:55:15.140Z,0.09
2018-12-01T00:56:15.684Z,0.09
2018-12-01T00:57:16.390Z,0.09
2018-12-01T00:58:16.865Z,0.09
2018-12-01T00:59:17.222Z,0.09
2018-12-01T01:00:17.721Z,0.09
2018-12-01T01:01:18.100Z,0.09
2018-12-01T01:02:18.779Z,0.09
2018-12-01T01:03:19.093Z,0.09
2018-12-01T01:04:19.614Z,0.09
2018-12-01T01:05:19.970Z,0.09
2018-12-01T01:06:20.696Z,0.09
2018-12-01T01:07:21.161Z,0.09
2018-12-01T01:08:21.670Z,0.09
2018-12-01T01:09:22.157Z,0.09
2018-12-01T01:10:23.068Z,0.09
2018-12-01T01:11:23.579Z,0.09
2018-12-01T01:12:24.075Z,0.09
2018-12-01T01:13:24.299Z,0.09
2018-12-01T01:14:24.642Z,0.09
2018-12-01T01:15:24.213Z,0.09
2018-12-01T01:16:25.652Z,0.09
2018-12-01T01:17:26.068Z,0.09
2018-12-01T01:18:26.478Z,0.09
2018-12-01T01:19:26.633Z,0.09
2018-12-01T01:20:27.132Z,0.09
2018-12-01T01:21:27.492Z,0.09
2018-12-01T01:22:27.837Z,0.09
2018-12-01T01:22:36.186Z,0.09
2018-12-01T01:23:37.557Z,0.09
2018-12-01T01:24:37.989Z,0.09
2018-12-01T01:25:38.388Z,0.09
2018-12-01T01:26:38.773Z,0.09
2018-12-01T01:27:39.176Z,0.09
2018-12-01T01:28:39.482Z,0.09
2018-12-01T01:29:39.894Z,0.09
2018-12-01T01:30:40.262Z,0.09
2018-12-01T01:31:40.679Z,0.09
2018-12-01T01:32:41.256Z,0.09
2018-12-01T01:33:41.690Z,0.09
2018-12-01T01:34:42.139Z,0.09
2018-12-01T01:35:42.536Z,0.09
2018-12-01T01:36:43.022Z,0.09
2018-12-01T01:37:43.463Z,0.09
2018-12-01T01:38:44.045Z,0.09
2018-12-01T01:39:44.695Z,0.09
2018-12-01T01:40:45.209Z,0.09
2018-12-01T01:41:45.677Z,0.09
2018-12-01T01:42:46.129Z,0.09
2018-12-01T01:43:46.585Z,0.09
2018-12-01T01:44:47.194Z,0.09
2018-12-01T01:45:47.937Z,0.09
2018-12-01T01:46:48.636Z,0.09
2018-12-01T01:47:49.470Z,0.09
2018-12-01T01:48:49.516Z,0.09
2018-12-01T01:49:49.978Z,0.09
2018-12-01T01:50:50.438Z,0.09
2018-12-01T01:51:50.918Z,0.09
2018-12-01T01:52:51.638Z,0.09
2018-12-01T01:53:52.093Z,0.09
2018-12-01T01:54:52.558Z,0.09
2018-12-01T01:55:53.188Z,0.09
2018-12-01T01:56:53.740Z,0.09
2018-12-01T01:57:54.309Z,0.09
2018-12-01T01:58:54.828Z,0.09
2018-12-01T01:59:55.761Z,0.09
2018-12-01T02:00:55.822Z,0.09
2018-12-01T02:01:56.374Z,0.09
2018-12-01T02:02:56.933Z,0.09
2018-12-01T02:03:57.322Z,0.09
2018-12-01T02:04:57.928Z,0.09
2018-12-01T02:05:58.310Z,0.09
2018-12-01T02:06:58.812Z,0.09
2018-12-01T02:07:07.432Z,0.09
2018-12-01T02:08:08.002Z,0.09
2018-12-01T02:09:08.526Z,0.09
2018-12-01T02:10:08.603Z,0.09
2018-12-01T02:11:09.313Z,0.09
2018-12-01T02:12:09.880Z,0.09
2018-12-01T02:13:10.623Z,0.09
2018-12-01T02:14:11.343Z,0.09
2018-12-01T02:15:11.855Z,0.09
2018-12-01T02:16:12.458Z,0.09
2018-12-01T02:17:12.164Z,0.09
2018-12-01T02:18:13.595Z,0.09
2018-12-01T02:19:14.137Z,0.09
2018-12-01T02:20:14.684Z,0.09
2018-12-01T02:21:15.533Z,0.09
2018-12-01T02:22:15.637Z,0.09
2018-12-01T02:23:15.805Z,0.09
2018-12-01T02:24:16.186Z,0.09
2018-12-01T02:25:17.078Z,0.09
2018-12-01T02:26:18.650Z,0.09
2018-12-01T02:27:18.251Z,0.09
2018-12-01T02:28:18.850Z,0.09
2018-12-01T02:29:19.418Z,0.09
2018-12-01T02:30:19.898Z,0.09
2018-12-01T02:31:20.390Z,0.09
2018-12-01T02:32:20.886Z,0.09
2018-12-01T02:33:21.234Z,0.09
2018-12-01T02:34:21.559Z,0.09
2018-12-01T02:35:21.666Z,0.09
2018-12-01T02:36:22.015Z,0.09
2018-12-01T02:37:22.086Z,0.09
2018-12-01T02:38:22.748Z,0.09
2018-12-01T02:39:23.690Z,0.09
2018-12-01T02:40:24.200Z,0.09
2018-12-01T02:41:24.738Z,0.09
2018-12-01T02:42:25.258Z,0.09
2018-12-01T02:43:25.767Z,0.09
2018-12-01T02:44:26.403Z,0.09
2018-12-01T02:45:26.876Z,0.09
2018-12-01T02:46:27.656Z,0.09
2018-12-01T02:47:28.169Z,0.09
2018-12-01T02:48:28.727Z,0.09
2018-12-01T02:49:29.176Z,0.09
2018-12-01T02:50:28.557Z,0.09
2018-12-01T02:51:29.911Z,0.09
2018-12-01T02:51:38.032Z,0.09
2018-12-01T02:52:39.368Z,0.09
2018-12-01T02:53:39.990Z,0.09
2018-12-01T02:54:39.390Z,0.09
2018-12-01T02:55:40.997Z,0.09
2018-12-01T02:56:41.395Z,0.09
2018-12-01T02:57:42.053Z,0.09
2018-12-01T02:58:42.438Z,0.09
2018-12-01T02:59:42.938Z,0.09
2018-12-01T03:00:43.633Z,0.09
2018-12-01T03:01:44.254Z,0.09
2018-12-01T03:02:45.814Z,0.09
2018-12-01T03:03:45.397Z,0.09
2018-12-01T03:04:46.107Z,0.09
2018-12-01T03:05:46.599Z,0.09
2018-12-01T03:06:47.160Z,0.09
2018-12-01T03:07:47.944Z,0.09
2018-12-01T03:08:48.276Z,0.09
2018-12-01T03:09:48.869Z,0.09
2018-12-01T03:10:49.313Z,0.09
2018-12-01T03:11:49.654Z,0.09
2018-12-01T03:12:50.131Z,0.09
2018-12-01T03:13:50.623Z,0.09
2018-12-01T03:14:51.025Z,0.09
2018-12-01T03:15:51.635Z,0.09
2018-12-01T03:16:52.094Z,0.09
2018-12-01T03:17:52.615Z,0.09
2018-12-01T03:18:53.036Z,0.09
2018-12-01T03:19:53.491Z,0.09
2018-12-01T03:20:52.885Z,0.09
2018-12-01T03:21:54.631Z,0.09
2018-12-01T03:22:55.047Z,0.09
2018-12-01T03:23:55.526Z,0.09
2018-12-01T03:24:55.967Z,0.09
2018-12-01T03:25:56.383Z,0.09
2018-12-01T03:26:55.847Z,0.09
2018-12-01T03:27:57.323Z,0.09
2018-12-01T03:28:57.800Z,0.09
2018-12-01T03:29:58.225Z,0.09
2018-12-01T03:30:58.765Z,0.09
2018-12-01T03:31:58.204Z,0.09
2018-12-01T03:32:59.589Z,0.09
2018-12-01T03:34:00.111Z,0.09
2018-12-01T03:34:59.406Z,0.09
2018-12-01T03:36:00.925Z,0.09
2018-12-01T03:37:01.345Z,0.09
2018-12-01T03:38:02.072Z,0.09
2018-12-01T03:39:02.536Z,0.09
2018-12-01T03:40:03.240Z,0.09
2018-12-01T03:40:12.607Z,0.09
2018-12-01T03:41:12.994Z,0.09
2018-12-01T03:42:13.356Z,0.09
2018-12-01T03:43:13.676Z,0.09
2018-12-01T03:44:14.043Z,0.09
2018-12-01T03:45:14.466Z,0.09
2018-12-01T03:46:15.026Z,0.09
2018-12-01T03:47:15.519Z,0.09
2018-12-01T03:48:15.859Z,0.09
2018-12-01T03:49:16.334Z,0.09
2018-12-01T03:50:16.860Z,0.09
2018-12-01T03:51:17.245Z,0.09
2018-12-01T03:52:17.794Z,0.09
2018-12-01T03:53:18.297Z,0.09
2018-12-01T03:54:18.691Z,0.09
2018-12-01T03:55:19.261Z,0.09
2018-12-01T03:56:19.723Z,0.09
2018-12-01T03:57:20.362Z,0.09
2018-12-01T03:58:20.730Z,0.09
2018-12-01T03:59:21.413Z,0.09
2018-12-01T04:00:21.941Z,0.09
2018-12-01T04:01:22.499Z,0.09
2018-12-01T04:02:22.986Z,0.09
2018-12-01T04:03:23.373Z,0.09
2018-12-01T04:04:23.801Z,0.09
2018-12-01T04:05:24.168Z,0.09
2018-12-01T04:06:24.576Z,0.09
2018-12-01T04:07:25.106Z,0.09
2018-12-01T04:08:25.730Z,0.09
2018-12-01T04:09:26.254Z,0.09
2018-12-01T04:10:26.729Z,0.09
2018-12-01T04:11:27.132Z,0.09
2018-12-01T04:12:27.530Z,0.09
2018-12-01T04:13:28.125Z,0.09
2018-12-01T04:14:28.737Z,0.09
2018-12-01T04:15:29.145Z,0.09
2018-12-01T04:16:29.673Z,0.09
2018-12-01T04:17:30.099Z,0.09
2018-12-01T04:18:30.509Z,0.09
2018-12-01T04:19:30.997Z,0.09
2018-12-01T04:20:31.754Z,0.09
2018-12-01T04:21:32.456Z,0.09
2018-12-01T04:22:33.167Z,0.09
2018-12-01T04:23:33.567Z,0.09
2018-12-01T04:23:41.673Z,0.09
2018-12-01T04:24:43.184Z,0.09
2018-12-01T04:25:43.279Z,0.09
2018-12-01T04:26:43.888Z,0.09
2018-12-01T04:27:43.433Z,0.09
2018-12-01T04:28:44.892Z,0.09
2018-12-01T04:29:45.619Z,0.09
2018-12-01T04:30:46.174Z,0.09
2018-12-01T04:31:46.791Z,0.09
2018-12-01T04:32:46.165Z,0.09
2018-12-01T04:33:47.659Z,0.09
2018-12-01T04:34:48.378Z,0.09
2018-12-01T04:35:49.076Z,0.09
2018-12-01T04:36:49.616Z,0.09
2018-12-01T04:37:50.150Z,0.09
2018-12-01T04:38:50.518Z,0.09
2018-12-01T04:39:51.153Z,0.09
2018-12-01T04:40:51.588Z,0.09
2018-12-01T04:41:51.961Z,0.09
2018-12-01T04:42:52.283Z,0.09
2018-12-01T04:43:52.800Z,0.09
2018-12-01T04:44:53.202Z,0.09
2018-12-01T04:45:53.619Z,0.09
2018-12-01T04:46:54.116Z,0.09
2018-12-01T04:47:54.569Z,0.09
2018-12-01T04:48:55.141Z,0.09
2018-12-01T04:49:55.717Z,0.09
2018-12-01T04:50:56.435Z,0.09
2018-12-01T04:51:56.812Z,0.09
2018-12-01T04:52:57.373Z,0.09
2018-12-01T04:53:57.933Z,0.09
2018-12-01T04:54:58.427Z,0.09
2018-12-01T04:55:59.077Z,0.09
2018-12-01T04:56:59.428Z,0.09
2018-12-01T04:58:00.208Z,0.09
2018-12-01T04:59:00.844Z,0.09
2018-12-01T05:00:01.359Z,0.09
2018-12-01T05:01:02.298Z,0.09
2018-12-01T05:02:02.782Z,0.09
2018-12-01T05:03:03.203Z,0.09
2018-12-01T05:04:03.587Z,0.09
2018-12-01T05:05:04.269Z,0.09
2018-12-01T05:06:05.001Z,0.09
2018-12-01T05:07:05.459Z,0.09
2018-12-01T05:08:05.922Z,0.09
2018-12-01T05:09:06.619Z,0.09
2018-12-01T05:09:15.000Z,0.09
2018-12-01T05:10:15.677Z,0.09
2018-12-01T05:11:16.254Z,0.09
2018-12-01T05:12:16.904Z,0.09
2018-12-01T05:13:17.825Z,0.09
2018-12-01T05:14:18.509Z,0.09
2018-12-01T05:15:19.467Z,0.09
2018-12-01T05:16:18.737Z,0.09
2018-12-01T05:17:20.150Z,0.09
2018-12-01T05:18:20.808Z,0.09
2018-12-01T05:19:21.240Z,0.09
2018-12-01T05:20:21.663Z,0.09
2018-12-01T05:21:22.250Z,0.09
2018-12-01T05:22:22.826Z,0.09
2018-12-01T05:23:23.498Z,0.09
2018-12-01T05:24:23.986Z,0.09
2018-12-01T05:25:24.694Z,0.09
2018-12-01T05:26:25.121Z,0.09
2018-12-01T05:27:25.681Z,0.09
2018-12-01T05:28:25.859Z,0.09
2018-12-01T05:29:26.617Z,0.09
2018-12-01T05:30:26.842Z,0.09
2018-12-01T05:31:27.238Z,0.09
2018-12-01T05:32:27.418Z,0.09
2018-12-01T05:33:27.837Z,0.09
2018-12-01T05:34:28.396Z,0.09
2018-12-01T05:35:28.936Z,0.09
2018-12-01T05:36:29.542Z,0.09
2018-12-01T05:37:30.121Z,0.09
2018-12-01T05:38:30.522Z,0.09
2018-12-01T05:39:31.030Z,0.09
2018-12-01T05:40:31.642Z,0.09
2018-12-01T05:41:32.177Z,0.09
2018-12-01T05:42:32.673Z,0.09
2018-12-01T05:43:33.259Z,0.09
2018-12-01T05:44:33.694Z,0.09
2018-12-01T05:45:34.176Z,0.09
2018-12-01T05:46:34.514Z,0.09
2018-12-01T05:47:34.838Z,0.09
2018-12-01T05:48:35.279Z,0.09
2018-12-01T05:49:36.060Z,0.09
2018-12-01T05:50:36.612Z,0.09
2018-12-01T05:51:37.215Z,0.09
2018-12-01T05:52:37.698Z,0.09
2018-12-01T05:53:36.832Z,0.09
2018-12-01T05:54:38.598Z,0.09
2018-12-01T05:55:39.567Z,0.09
2018-12-01T05:55:48.000Z,0.09
2018-12-01T05:56:49.452Z,0.09
2018-12-01T05:57:49.846Z,0.09
2018-12-01T05:58:50.367Z,0.09
2018-12-01T05:59:51.227Z,0.09
2018-12-01T06:00:51.726Z,0.09
2018-12-01T06:01:52.285Z,0.09
2018-12-01T06:02:52.960Z,0.09
2018-12-01T06:03:53.938Z,0.09
2018-12-01T06:04:54.382Z,0.09
2018-12-01T06:05:54.659Z,0.09
2018-12-01T06:06:55.625Z,0.09
2018-12-01T06:07:56.216Z,0.09
2018-12-01T06:08:56.930Z,0.09
2018-12-01T06:09:57.559Z,0.09
2018-12-01T06:10:58.246Z,0.09
2018-12-01T06:11:58.887Z,0.09
2018-12-01T06:12:59.439Z,0.09
2018-12-01T06:13:59.993Z,0.09
2018-12-01T06:15:00.558Z,0.09
2018-12-01T06:16:01.044Z,0.09
2018-12-01T06:17:01.653Z,0.09
2018-12-01T06:18:02.254Z,0.13
2018-12-01T06:19:02.997Z,0.09
2018-12-01T06:20:03.595Z,0.09
2018-12-01T06:21:04.149Z,0.13
2018-12-01T06:22:04.614Z,0.09
2018-12-01T06:23:05.085Z,0.13
2018-12-01T06:24:05.762Z,0.13
2018-12-01T06:25:06.463Z,0.13
2018-12-01T06:26:07.124Z,0.13
2018-12-01T06:27:07.704Z,0.13
2018-12-01T06:28:08.489Z,0.13
2018-12-01T06:29:09.106Z,0.13
2018-12-01T06:30:09.942Z,0.13
2018-12-01T06:31:10.471Z,0.13
2018-12-01T06:32:10.811Z,0.13
2018-12-01T06:33:11.419Z,0.13
2018-12-01T06:34:11.965Z,0.13
2018-12-01T06:35:12.407Z,0.13
2018-12-01T06:36:13.130Z,0.13
2018-12-01T06:37:13.592Z,0.13
2018-12-01T06:38:14.196Z,0.13
2018-12-01T06:39:14.706Z,0.13
2018-12-01T06:40:15.401Z,0.13
2018-12-01T06:41:16.024Z,0.13
2018-12-01T06:41:24.474Z,0.13
2018-12-01T06:42:25.949Z,0.13
2018-12-01T06:43:26.476Z,0.13
2018-12-01T06:44:26.978Z,0.13
2018-12-01T06:45:27.540Z,0.13
2018-12-01T06:46:28.119Z,0.13
2018-12-01T06:47:28.570Z,0.13
2018-12-01T06:48:29.017Z,0.13
2018-12-01T06:49:29.786Z,0.13
2018-12-01T06:50:30.270Z,0.13
2018-12-01T06:51:30.704Z,0.13
2018-12-01T06:52:31.280Z,0.13
2018-12-01T06:53:31.706Z,0.13
2018-12-01T06:54:32.298Z,0.16
2018-12-01T06:55:33.034Z,0.16
2018-12-01T06:56:33.424Z,0.16
2018-12-01T06:57:34.108Z,0.16
2018-12-01T06:58:34.454Z,0.16
2018-12-01T06:59:34.917Z,0.16
2018-12-01T07:00:35.474Z,0.16
2018-12-01T07:01:35.787Z,0.16
2018-12-01T07:02:36.293Z,0.16
2018-12-01T07:03:36.906Z,0.16
2018-12-01T07:04:37.246Z,0.16
2018-12-01T07:05:37.606Z,0.16
2018-12-01T07:06:38.022Z,0.16
2018-12-01T07:07:38.502Z,0.16
2018-12-01T07:08:38.850Z,0.16
2018-12-01T07:09:39.267Z,0.16
2018-12-01T07:10:39.868Z,0.16
2018-12-01T07:11:40.225Z,0.16
2018-12-01T07:12:40.711Z,0.16
2018-12-01T07:13:41.152Z,0.16
2018-12-01T07:14:41.652Z,0.16
2018-12-01T07:15:42.182Z,0.16
2018-12-01T07:16:42.551Z,0.16
2018-12-01T07:17:43.035Z,0.16
2018-12-01T07:18:43.584Z,0.16
2018-12-01T07:19:44.085Z,0.23
2018-12-01T07:20:44.795Z,0.23
2018-12-01T07:21:45.115Z,0.23
2018-12-01T07:22:45.620Z,0.23
2018-12-01T07:23:46.035Z,0.27
2018-12-01T07:24:46.482Z,0.23
2018-12-01T07:25:46.847Z,0.27
2018-12-01T07:26:47.240Z,0.27
2018-12-01T07:26:55.626Z,0.27
2018-12-01T07:27:56.981Z,0.23
2018-12-01T07:28:57.372Z,0.27
2018-12-01T07:29:58.175Z,0.23
2018-12-01T07:30:57.207Z,0.27
2018-12-01T07:31:58.625Z,0.27
2018-12-01T07:32:59.201Z,0.27
2018-12-01T07:33:59.590Z,0.27
2018-12-01T07:34:59.979Z,0.27
2018-12-01T07:36:00.400Z,0.27
2018-12-01T07:37:01.085Z,0.27
2018-12-01T07:38:01.546Z,0.27
2018-12-01T07:39:01.889Z,0.27
2018-12-01T07:40:02.265Z,0.27
2018-12-01T07:41:03.166Z,0.27
2018-12-01T07:42:03.633Z,0.27
2018-12-01T07:43:04.058Z,0.27
2018-12-01T07:44:04.772Z,0.27
2018-12-01T07:45:05.203Z,0.27
2018-12-01T07:46:06.028Z,0.27
2018-12-01T07:47:06.405Z,0.27
2018-12-01T07:48:06.900Z,0.31
2018-12-01T07:49:07.353Z,0.31
2018-12-01T07:50:07.867Z,0.31
2018-12-01T07:51:08.203Z,0.31
2018-12-01T07:52:08.515Z,0.31
2018-12-01T07:53:09.661Z,0.31
2018-12-01T07:54:08.317Z,0.31
2018-12-01T07:55:09.833Z,0.31
2018-12-01T07:56:10.232Z,0.27
2018-12-01T07:57:10.807Z,0.31
2018-12-01T07:58:11.424Z,0.31
2018-12-01T07:59:11.905Z,0.31
2018-12-01T08:00:12.234Z,0.31
2018-12-01T08:01:12.609Z,0.31
2018-12-01T08:02:12.962Z,0.34
2018-12-01T08:03:13.591Z,0.34
2018-12-01T08:04:14.033Z,0.34
2018-12-01T08:05:14.521Z,0.34
2018-12-01T08:06:15.109Z,0.34
2018-12-01T08:07:15.442Z,0.34
2018-12-01T08:08:15.830Z,0.34
2018-12-01T08:09:16.738Z,0.34
2018-12-01T08:10:17.246Z,0.34
2018-12-01T08:11:17.602Z,0.34
2018-12-01T08:12:17.993Z,0.34
2018-12-01T08:12:26.775Z,0.34
2018-12-01T08:13:27.390Z,0.34
2018-12-01T08:14:28.333Z,0.34
2018-12-01T08:15:29.037Z,0.38
2018-12-01T08:16:29.492Z,0.38
2018-12-01T08:17:29.952Z,0.38
2018-12-01T08:18:30.429Z,0.38
2018-12-01T08:19:30.793Z,0.38
2018-12-01T08:20:31.061Z,0.38
2018-12-01T08:21:31.528Z,0.38
2018-12-01T08:22:31.887Z,0.38
2018-12-01T08:23:32.341Z,0.38
2018-12-01T08:24:32.714Z,0.38
2018-12-01T08:25:33.089Z,0.38
2018-12-01T08:26:33.589Z,0.38
2018-12-01T08:27:33.927Z,0.38
2018-12-01T08:28:34.333Z,0.41
2018-12-01T08:29:34.731Z,0.41
2018-12-01T08:30:35.133Z,0.41
2018-12-01T08:31:35.480Z,0.41
2018-12-01T08:32:35.903Z,0.41
2018-12-01T08:33:36.202Z,0.41
2018-12-01T08:34:36.533Z,0.41
2018-12-01T08:35:36.995Z,0.41
2018-12-01T08:36:37.290Z,0.41
2018-12-01T08:37:38.156Z,0.41
2018-12-01T08:38:38.646Z,0.41
2018-12-01T08:39:39.142Z,0.41
2018-12-01T08:40:39.758Z,0.38
2018-12-01T08:41:40.101Z,0.41
2018-12-01T08:42:40.728Z,0.41
2018-12-01T08:43:41.160Z,0.41
2018-12-01T08:44:41.531Z,0.41
2018-12-01T08:45:42.238Z,0.41
2018-12-01T08:46:42.504Z,0.41
2018-12-01T08:47:42.842Z,0.41
2018-12-01T08:48:43.449Z,0.41
2018-12-01T08:49:44.518Z,0.41
2018-12-01T08:50:43.187Z,0.38
2018-12-01T08:51:44.578Z,0.41
2018-12-01T08:52:44.983Z,0.38
2018-12-01T08:53:45.552Z,0.41
2018-12-01T08:54:46.183Z,0.41
2018-12-01T08:55:46.774Z,0.41
2018-12-01T08:56:47.106Z,0.41
2018-12-01T08:57:47.527Z,0.41
2018-12-01T08:57:55.878Z,0.41
2018-12-01T08:58:57.371Z,0.41
2018-12-01T08:59:57.800Z,0.41
2018-12-01T09:00:58.123Z,0.41
2018-12-01T09:01:58.479Z,0.41
2018-12-01T09:02:59.997Z,0.41
2018-12-01T09:03:59.405Z,0.41
2018-12-01T09:04:59.681Z,0.41
2018-12-01T09:06:00.088Z,0.41
2018-12-01T09:07:00.761Z,0.41
2018-12-01T09:08:01.183Z,0.41
2018-12-01T09:09:01.584Z,0.41
2018-12-01T09:10:02.108Z,0.41
2018-12-01T09:11:02.474Z,0.41
2018-12-01T09:12:02.927Z,0.41
2018-12-01T09:13:03.455Z,0.41
2018-12-01T09:14:03.878Z,0.45
2018-12-01T09:15:03.871Z,0.41
2018-12-01T09:16:04.863Z,0.45
2018-12-01T09:17:05.245Z,0.45
2018-12-01T09:18:05.636Z,0.45
2018-12-01T09:19:06.012Z,0.41
2018-12-01T09:20:06.899Z,0.41
2018-12-01T09:21:07.265Z,0.41
2018-12-01T09:22:07.690Z,0.45
2018-12-01T09:23:08.184Z,0.41
2018-12-01T09:24:09.060Z,0.45
2018-12-01T09:25:09.442Z,0.41
2018-12-01T09:26:09.786Z,0.45
2018-12-01T09:27:10.250Z,0.45
2018-12-01T09:28:10.540Z,0.45
2018-12-01T09:29:11.014Z,0.48
2018-12-01T09:30:11.385Z,0.48
2018-12-01T09:31:11.768Z,0.48
2018-12-01T09:32:12.120Z,0.48
2018-12-01T09:33:12.513Z,0.45
2018-12-01T09:34:12.879Z,0.45
2018-12-01T09:35:13.262Z,0.45
2018-12-01T09:36:13.881Z,0.45
2018-12-01T09:37:14.591Z,0.48
2018-12-01T09:38:15.243Z,0.48
2018-12-01T09:39:15.580Z,0.48
2018-12-01T09:40:15.931Z,0.45
2018-12-01T09:41:16.514Z,0.45
2018-12-01T09:42:16.889Z,0.45
2018-12-01T09:43:17.375Z,0.45
2018-12-01T09:43:26.001Z,0.45
2018-12-01T09:44:26.456Z,0.41
2018-12-01T09:45:26.901Z,0.41
2018-12-01T09:46:27.341Z,0.38
2018-12-01T09:47:27.832Z,0.38
2018-12-01T09:48:27.231Z,0.38
2018-12-01T09:49:29.348Z,0.34
2018-12-01T09:50:28.152Z,0.34
2018-12-01T09:51:29.504Z,0.34
2018-12-01T09:52:29.928Z,0.34
2018-12-01T09:53:30.316Z,0.34
2018-12-01T09:54:30.837Z,0.34
2018-12-01T09:55:31.193Z,0.34
2018-12-01T09:56:31.594Z,0.34
2018-12-01T09:57:32.020Z,0.34
2018-12-01T09:58:32.465Z,0.34
2018-12-01T09:59:32.865Z,0.34
2018-12-01T10:00:33.283Z,0.34
2018-12-01T10:01:33.837Z,0.31
2018-12-01T10:02:34.645Z,0.34
2018-12-01T10:03:35.288Z,0.34
2018-12-01T10:04:35.694Z,0.31
2018-12-01T10:05:36.482Z,0.34
2018-12-01T10:06:37.023Z,0.34
2018-12-01T10:07:37.575Z,0.34
2018-12-01T10:08:38.039Z,0.34
2018-12-01T10:09:38.384Z,0.34
2018-12-01T10:10:38.797Z,0.34
2018-12-01T10:11:39.113Z,0.34
2018-12-01T10:12:39.978Z,0.34
2018-12-01T10:13:40.385Z,0.34
2018-12-01T10:14:40.845Z,0.34
2018-12-01T10:15:41.206Z,0.34
2018-12-01T10:16:41.768Z,0.34
2018-12-01T10:17:42.270Z,0.31
2018-12-01T10:18:42.860Z,0.31
2018-12-01T10:19:43.752Z,0.34
2018-12-01T10:20:44.412Z,0.34
2018-12-01T10:21:44.876Z,0.34
2018-12-01T10:22:45.350Z,0.34
2018-12-01T10:23:45.435Z,0.38
2018-12-01T10:24:45.924Z,0.41
2018-12-01T10:25:46.356Z,0.45
2018-12-01T10:26:46.706Z,0.48
2018-12-01T10:27:47.190Z,0.59
2018-12-01T10:28:47.567Z,0.55
2018-12-01T10:29:48.017Z,0.59
2018-12-01T10:29:56.445Z,0.59
2018-12-01T10:30:57.722Z,0.48
2018-12-01T10:31:58.174Z,0.45
2018-12-01T10:32:58.533Z,0.41
2018-12-01T10:33:58.988Z,0.41
2018-12-01T10:34:59.300Z,0.38
2018-12-01T10:35:59.723Z,0.38
2018-12-01T10:37:00.149Z,0.38
2018-12-01T10:38:00.742Z,0.38
2018-12-01T10:39:03.710Z,0.38
2018-12-01T10:40:00.393Z,0.38
2018-12-01T10:41:02.124Z,0.38
2018-12-01T10:42:03.703Z,0.41
2018-12-01T10:43:01.957Z,0.41
2018-12-01T10:44:03.703Z,0.45
2018-12-01T10:45:03.699Z,0.45
2018-12-01T10:46:04.077Z,0.45
2018-12-01T10:47:04.525Z,0.45
2018-12-01T10:48:05.210Z,0.48
2018-12-01T10:49:05.884Z,0.45
2018-12-01T10:50:06.283Z,0.45
2018-12-01T10:51:06.713Z,0.45
2018-12-01T10:52:07.144Z,0.48
2018-12-01T10:53:07.537Z,0.48
2018-12-01T10:54:07.951Z,0.52
2018-12-01T10:55:08.433Z,0.52
2018-12-01T10:56:08.885Z,0.59
2018-12-01T10:57:09.289Z,0.52
2018-12-01T10:58:09.652Z,0.48
2018-12-01T10:59:10.079Z,0.45
2018-12-01T11:00:10.540Z,0.45
2018-12-01T11:01:10.976Z,0.41
2018-12-01T11:02:11.576Z,0.38
2018-12-01T11:03:12.073Z,0.38
2018-12-01T11:04:12.883Z,0.41
2018-12-01T11:05:13.516Z,0.38
2018-12-01T11:06:14.113Z,0.34
2018-12-01T11:07:14.477Z,0.34
2018-12-01T11:08:14.766Z,0.34
2018-12-01T11:09:15.039Z,0.34
2018-12-01T11:10:16.486Z,0.38
2018-12-01T11:11:14.795Z,0.38
2018-12-01T11:12:16.169Z,0.38
2018-12-01T11:13:16.525Z,0.38
2018-12-01T11:14:16.959Z,0.34
2018-12-01T11:15:17.695Z,0.31
2018-12-01T11:16:18.017Z,0.31
2018-12-01T11:17:18.584Z,0.31
2018-12-01T11:17:26.995Z,0.31
2018-12-01T11:18:27.401Z,0.31
2018-12-01T11:19:28.711Z,0.34
2018-12-01T11:20:29.111Z,0.38
2018-12-01T11:21:29.410Z,0.34
2018-12-01T11:22:29.897Z,0.34
2018-12-01T11:23:30.281Z,0.34
2018-12-01T11:24:30.576Z,0.34
2018-12-01T11:25:30.997Z,0.41
2018-12-01T11:26:31.426Z,0.48
2018-12-01T11:27:31.749Z,0.48
2018-12-01T11:28:32.158Z,0.45
2018-12-01T11:29:33.945Z,0.45
2018-12-01T11:30:33.369Z,0.55
2018-12-01T11:31:33.874Z,0.59
2018-12-01T11:32:34.315Z,0.66
2018-12-01T11:33:34.801Z,0.66
2018-12-01T11:34:35.016Z,0.66
2018-12-01T11:35:35.376Z,0.59
2018-12-01T11:36:35.648Z,0.66
2018-12-01T11:37:36.104Z,0.59
2018-12-01T11:38:36.414Z,0.52
2018-12-01T11:39:36.718Z,0.48
2018-12-01T11:40:37.383Z,0.55
2018-12-01T11:41:37.774Z,0.52
2018-12-01T11:42:36.798Z,0.55
2018-12-01T11:43:38.136Z,0.55
2018-12-01T11:44:38.929Z,0.48
2018-12-01T11:45:39.232Z,0.48
2018-12-01T11:46:39.724Z,0.45
2018-12-01T11:47:40.397Z,0.41
2018-12-01T11:48:40.792Z,0.41
2018-12-01T11:49:41.192Z,0.41
2018-12-01T11:50:41.860Z,0.41
2018-12-01T11:51:42.325Z,0.38
2018-12-01T11:52:42.742Z,0.38
2018-12-01T11:53:43.157Z,0.38
2018-12-01T11:54:43.581Z,0.38
2018-12-01T11:55:44.219Z,0.41
2018-12-01T11:56:44.501Z,0.41
2018-12-01T11:57:44.851Z,0.41
2018-12-01T11:58:46.240Z,0.41
2018-12-01T11:59:45.570Z,0.41
2018-12-01T12:00:46.114Z,0.41
2018-12-01T12:01:46.678Z,0.38
2018-12-01T12:02:47.070Z,0.41
2018-12-01T12:03:47.354Z,0.38
2018-12-01T12:03:57.281Z,0.38
2018-12-01T12:04:58.687Z,0.38
2018-12-01T12:05:59.110Z,0.38
2018-12-01T12:06:59.495Z,0.38
2018-12-01T12:07:59.953Z,0.38
2018-12-01T12:09:00.437Z,0.38
2018-12-01T12:10:00.794Z,0.34
2018-12-01T12:11:02.259Z,0.38
2018-12-01T12:12:01.675Z,0.34
2018-12-01T12:13:02.229Z,0.34
2018-12-01T12:14:02.721Z,0.34
2018-12-01T12:15:03.136Z,0.34
2018-12-01T12:16:03.629Z,0.34
2018-12-01T12:17:03.939Z,0.34
2018-12-01T12:18:04.473Z,0.38
2018-12-01T12:19:04.860Z,0.38
2018-12-01T12:20:05.216Z,0.41
2018-12-01T12:21:05.500Z,0.41
2018-12-01T12:22:05.827Z,0.45
2018-12-01T12:23:06.174Z,0.45
2018-12-01T12:24:06.504Z,0.45
2018-12-01T12:25:06.790Z,0.45
2018-12-01T12:26:07.110Z,0.48
2018-12-01T12:27:07.461Z,0.48
2018-12-01T12:28:07.917Z,0.48
2018-12-01T12:29:08.264Z,0.45
2018-12-01T12:30:08.843Z,0.45
2018-12-01T12:31:08.192Z,0.48
2018-12-01T12:32:09.789Z,0.48
2018-12-01T12:33:10.216Z,0.48
2018-12-01T12:34:10.704Z,0.45
2018-12-01T12:35:11.572Z,0.45
2018-12-01T12:36:12.082Z,0.45
2018-12-01T12:37:12.732Z,0.45
2018-12-01T12:38:13.189Z,0.45
2018-12-01T12:39:13.473Z,0.48
2018-12-01T12:40:13.785Z,0.48
2018-12-01T12:41:14.107Z,0.48
2018-12-01T12:42:14.387Z,0.48
2018-12-01T12:43:15.765Z,0.45
2018-12-01T12:44:15.310Z,0.48
2018-12-01T12:45:15.787Z,0.48
2018-12-01T12:46:16.142Z,0.48
2018-12-01T12:47:16.694Z,0.48
2018-12-01T12:48:16.989Z,0.48
2018-12-01T12:49:17.428Z,0.48
2018-12-01T12:49:25.818Z,0.45
2018-12-01T12:50:27.084Z,0.48
2018-12-01T12:51:27.396Z,0.55
2018-12-01T12:52:27.989Z,0.48
2018-12-01T12:53:28.669Z,0.45
2018-12-01T12:54:28.994Z,0.45
2018-12-01T12:55:29.430Z,0.45
2018-12-01T12:56:29.753Z,0.45
2018-12-01T12:57:30.119Z,0.45
2018-12-01T12:58:30.854Z,0.45
2018-12-01T12:59:31.232Z,0.45
2018-12-01T13:00:32.602Z,0.45
2018-12-01T13:01:31.956Z,0.45
2018-12-01T13:02:32.348Z,0.45
2018-12-01T13:03:32.778Z,0.45
2018-12-01T13:04:33.138Z,0.48
2018-12-01T13:05:33.466Z,0.52
2018-12-01T13:06:33.875Z,0.48
2018-12-01T13:07:34.404Z,0.48
2018-12-01T13:08:34.794Z,0.45
2018-12-01T13:09:35.156Z,0.45
2018-12-01T13:10:35.749Z,0.48